Time;durP1;ratioP1;P1;durP2;ratioP2;P2;SDS_P1;SDS_P2;PMS_P1;PMS_P2;Temp;Humidity;BMP_temperature;BMP_pressure;BME280_temperature;BME280_humidity;BME280_pressure;Samples;Min_cycle;Max_cycle;Signal;HPM_P1;HPM_P2
2021/09/09 00:01:07;;;;;;;0.77;0.73;;;25.40;99.90;;;;;;20626055;23;20231;-68
2021/09/09 00:11:11;;;;;;;0.88;0.73;;;25.30;99.90;;;;;;20620790;28;20233;-68
2021/09/09 00:21:17;;;;;;;3.13;1.77;;;25.20;99.90;;;;;;20641300;28;20230;-68
2021/09/09 00:31:20;;;;;;;1.70;1.45;;;25.20;99.90;;;;;;20698608;28;20326;-67
2021/09/09 00:41:29;;;;;;;2.38;1.55;;;25.30;99.90;;;;;;20696802;28;20707;-68
2021/09/09 00:51:32;;;;;;;4.20;1.40;;;25.10;99.90;;;;;;20695524;28;20278;-68
2021/09/09 01:01:37;;;;;;;4.50;1.58;;;25.00;99.90;;;;;;20683791;28;20238;-67
2021/09/09 01:11:42;;;;;;;1.08;1.02;;;25.10;99.90;;;;;;20713356;28;20195;-67
2021/09/09 01:21:47;;;;;;;0.73;0.73;;;25.10;99.90;;;;;;20681149;28;20291;-68
2021/09/09 01:31:52;;;;;;;1.10;0.57;;;24.90;99.90;;;;;;20622659;28;20361;-67
2021/09/09 01:41:58;;;;;;;1.35;1.27;;;24.90;99.90;;;;;;20629680;28;20266;-66
2021/09/09 01:52:05;;;;;;;1.70;0.75;;;24.90;99.90;;;;;;20611909;28;20195;-67
2021/09/09 02:02:08;;;;;;;0.85;0.85;;;24.90;99.90;;;;;;20629760;28;20301;-67
2021/09/09 02:12:14;;;;;;;1.20;0.80;;;24.80;99.90;;;;;;20624479;28;20338;-67
2021/09/09 02:22:18;;;;;;;1.58;1.05;;;24.70;99.90;;;;;;20660425;28;20633;-66
2021/09/09 02:32:23;;;;;;;1.75;1.05;;;24.60;99.90;;;;;;20706260;28;20289;-68
2021/09/09 02:42:27;;;;;;;4.82;2.08;;;24.50;99.90;;;;;;20703518;28;20751;-66
2021/09/09 02:52:32;;;;;;;0.45;0.45;;;24.50;99.90;;;;;;20705107;28;20660;-67
2021/09/09 03:02:36;;;;;;;1.05;0.90;;;24.50;99.90;;;;;;20705492;28;20583;-67
2021/09/09 03:12:42;;;;;;;1.27;1.17;;;24.50;99.90;;;;;;20685207;28;20248;-67
2021/09/09 03:22:45;;;;;;;1.98;0.80;;;24.40;99.90;;;;;;20663199;28;20262;-67
2021/09/09 03:32:50;;;;;;;1.50;1.08;;;24.30;99.90;;;;;;20587768;28;20223;-67
2021/09/09 03:42:54;;;;;;;11.25;1.63;;;24.10;99.90;;;;;;20532005;28;20585;-67
2021/09/09 03:53:01;;;;;;;1.20;1.10;;;23.90;99.90;;;;;;20535659;28;20287;-67
2021/09/09 04:03:05;;;;;;;0.63;0.63;;;23.80;99.90;;;;;;20546621;28;20686;-67
2021/09/09 04:13:10;;;;;;;3.13;2.67;;;23.70;99.90;;;;;;20538315;28;20214;-68
2021/09/09 04:23:14;;;;;;;1.40;1.20;;;23.60;99.90;;;;;;20616624;28;20274;-68
2021/09/09 04:33:20;;;;;;;1.38;1.20;;;23.50;99.90;;;;;;20584968;28;20208;-67
2021/09/09 04:43:23;;;;;;;0.38;0.38;;;23.70;99.90;;;;;;20537083;28;20235;-69
2021/09/09 04:53:28;;;;;;;0.60;0.60;;;23.80;99.90;;;;;;20538978;28;20196;-65
2021/09/09 05:03:32;;;;;;;1.38;0.93;;;24.00;99.90;;;;;;20532933;28;20223;-67
2021/09/09 05:13:37;;;;;;;1.10;1.00;;;24.00;99.90;;;;;;20534087;28;20196;-68
2021/09/09 05:23:41;;;;;;;0.57;0.52;;;24.00;99.90;;;;;;20623976;28;20219;-67
2021/09/09 05:33:46;;;;;;;2.03;1.42;;;24.00;99.90;;;;;;20693574;28;20217;-66
2021/09/09 05:43:50;;;;;;;1.02;0.98;;;24.10;99.90;;;;;;20694886;28;20222;-64
2021/09/09 05:53:55;;;;;;;10.75;1.23;;;24.10;99.90;;;;;;20707676;28;20206;-67
2021/09/09 06:04:00;;;;;;;1.00;0.75;;;24.20;99.90;;;;;;20707957;28;20249;-66
2021/09/09 06:14:06;;;;;;;0.85;0.80;;;24.10;99.90;;;;;;20705471;28;20194;-67
2021/09/09 06:24:10;;;;;;;1.50;1.30;;;24.20;99.90;;;;;;20648962;28;20225;-67
2021/09/09 06:34:15;;;;;;;1.40;1.08;;;24.30;99.90;;;;;;20623110;28;20191;-66
2021/09/09 06:44:19;;;;;;;2.10;1.58;;;24.40;99.90;;;;;;20621533;28;20234;-65
2021/09/09 06:54:24;;;;;;;3.05;1.70;;;24.60;99.90;;;;;;20619314;28;20539;-67
2021/09/09 07:04:29;;;;;;;1.02;0.93;;;25.00;99.90;;;;;;20622934;28;20239;-69
2021/09/09 07:14:34;;;;;;;5.25;1.70;;;25.30;99.90;;;;;;20618297;28;20203;-65
2021/09/09 07:24:38;;;;;;;1.02;0.85;;;25.40;99.90;;;;;;20673364;28;20214;-64
2021/09/09 07:34:46;;;;;;;1.08;0.98;;;25.40;99.90;;;;;;20682353;28;20195;-67
2021/09/09 07:44:50;;;;;;;1.20;0.65;;;25.60;99.90;;;;;;20699317;28;20262;-67
2021/09/09 07:54:57;;;;;;;3.35;1.85;;;25.80;99.90;;;;;;20701411;28;20301;-67
2021/09/09 08:05:01;;;;;;;1.67;1.58;;;26.30;99.90;;;;;;20695704;28;20317;-67
2021/09/09 08:15:07;;;;;;;1.15;1.05;;;26.40;99.90;;;;;;20697110;28;20195;-68
2021/09/09 08:25:13;;;;;;;2.28;1.08;;;26.50;99.90;;;;;;20636992;28;20289;-65
2021/09/09 08:35:17;;;;;;;2.70;1.25;;;26.70;99.90;;;;;;20614754;28;20720;-69
2021/09/09 08:45:21;;;;;;;1.08;1.00;;;27.10;99.90;;;;;;20606044;28;20234;-68
2021/09/09 08:55:26;;;;;;;1.67;1.55;;;27.30;99.90;;;;;;20611189;28;20195;-69
2021/09/09 09:05:40;;;;;;;2.83;2.13;;;28.00;99.90;;;;;;20612194;28;20771;-68
2021/09/09 09:15:48;;;;;;;1.42;1.23;;;28.20;99.90;;;;;;20610875;28;20589;-67
2021/09/09 09:25:56;;;;;;;0.77;0.73;;;27.80;99.90;;;;;;20684747;28;20595;-66
2021/09/09 09:36:15;;;;;;;1.42;1.27;;;27.90;99.90;;;;;;20709514;28;20199;-69
2021/09/09 09:46:30;;;;;;;1.77;1.33;;;27.70;99.90;;;;;;20703938;28;20223;-68
2021/09/09 09:56:37;;;;;;;1.70;1.25;;;27.90;99.90;;;;;;20707015;28;20199;-69
2021/09/09 10:06:43;;;;;;;1.52;1.05;;;28.60;99.90;;;;;;20707689;28;20233;-68
2021/09/09 10:16:49;;;;;;;1.63;0.85;;;28.80;99.90;;;;;;20708039;28;20199;-65
2021/09/09 10:27:12;;;;;;;4.80;1.77;;;28.90;99.90;;;;;;20623786;28;20313;-67
2021/09/09 10:37:31;;;;;;;1.33;0.60;;;29.10;99.90;;;;;;20620698;28;20207;-67
2021/09/09 10:47:50;;;;;;;2.13;1.83;;;29.00;99.90;;;;;;20617062;28;20234;-68
2021/09/09 10:58:29;;;;;;;7.22;2.83;;;29.90;99.90;;;;;;20619412;28;20595;-69
2021/09/09 11:08:33;;;;;;;3.15;1.05;;;30.60;99.90;;;;;;20621948;28;20378;-67
2021/09/09 11:18:38;;;;;;;1.65;1.45;;;30.90;99.90;;;;;;20625089;28;20198;-66
2021/09/09 11:28:42;;;;;;;4.10;1.90;;;29.10;99.90;;;;;;20681849;28;20241;-68
2021/09/09 11:38:49;;;;;;;1.67;1.58;;;29.00;99.90;;;;;;20699934;28;20735;-65
2021/09/09 11:48:54;;;;;;;1.02;1.00;;;29.70;99.90;;;;;;20699989;28;20244;-68
2021/09/09 11:59:03;;;;;;;1.30;1.17;;;30.20;99.90;;;;;;20700325;28;20199;-67
2021/09/09 12:09:07;;;;;;;4.22;1.60;;;29.60;99.90;;;;;;20697219;28;20308;-69
2021/09/09 12:19:12;;;;;;;2.45;1.67;;;32.30;99.90;;;;;;20689607;28;20199;-69
2021/09/09 12:29:17;;;;;;;1.67;1.42;;;32.10;99.90;;;;;;20618924;28;20187;-69
2021/09/09 12:39:22;;;;;;;4.28;3.90;;;32.60;99.90;;;;;;20626271;28;20234;-67
2021/09/09 12:49:28;;;;;;;1.55;1.13;;;32.90;99.90;;;;;;20615679;28;20575;-70
2021/09/09 12:59:34;;;;;;;6.82;1.77;;;32.80;99.90;;;;;;20623375;28;20219;-67
2021/09/09 13:09:38;;;;;;;4.13;1.73;;;31.70;99.90;;;;;;20642322;28;20207;-66
2021/09/09 13:19:43;;;;;;;5.07;2.67;;;32.70;99.90;;;;;;20639287;28;20400;-66
2021/09/09 13:29:47;;;;;;;4.03;2.55;;;33.40;99.90;;;;;;20642038;28;20199;-69
2021/09/09 13:39:52;;;;;;;4.97;2.75;;;32.50;99.90;;;;;;20620478;28;20274;-66
2021/09/09 13:49:56;;;;;;;3.60;2.15;;;34.20;99.90;;;;;;20630508;28;21224;-68
2021/09/09 14:00:04;;;;;;;3.85;1.73;;;34.60;99.90;;;;;;20555668;28;20243;-67
2021/09/09 14:10:10;;;;;;;4.10;2.28;;;30.50;99.90;;;;;;20552072;28;20212;-68
2021/09/09 14:20:16;;;;;;;9.50;1.67;;;29.30;99.90;;;;;;20569686;28;21026;-66
2021/09/09 14:30:20;;;;;;;1.70;1.25;;;29.40;99.90;;;;;;20699348;28;20206;-67
2021/09/09 14:40:28;;;;;;;8.00;1.90;;;28.40;99.90;;;;;;20700835;28;20577;-66
2021/09/09 14:50:31;;;;;;;2.95;2.75;;;27.70;99.90;;;;;;20650709;28;20196;-69
2021/09/09 15:00:37;;;;;;;1.27;1.08;;;27.70;99.90;;;;;;20596268;28;20310;-68
2021/09/09 15:10:41;;;;;;;1.80;1.70;;;27.70;99.90;;;;;;20618362;28;20561;-68
2021/09/09 15:20:46;;;;;;;2.25;1.38;;;27.30;99.90;;;;;;20642551;28;20222;-66
2021/09/09 15:30:50;;;;;;;3.28;2.35;;;27.60;99.90;;;;;;20698424;28;20710;-68
2021/09/09 15:40:57;;;;;;;2.00;1.80;;;27.60;99.90;;;;;;20693294;28;20238;-67
2021/09/09 15:51:00;;;;;;;8.15;1.63;;;26.80;99.90;;;;;;20696902;28;20194;-66
2021/09/09 16:01:05;;;;;;;2.45;0.60;;;27.20;99.90;;;;;;20689909;28;20246;-67
2021/09/09 16:11:09;;;;;;;1.85;1.63;;;26.70;99.90;;;;;;20689940;28;20473;-67
2021/09/09 16:21:14;;;;;;;6.05;2.17;;;26.80;99.90;;;;;;20661054;28;20235;-68
2021/09/09 16:31:18;;;;;;;4.47;2.17;;;26.30;99.90;;;;;;20606452;28;20270;-67
2021/09/09 16:41:24;;;;;;;1.33;1.17;;;26.50;99.90;;;;;;20605566;28;20693;-67
2021/09/09 16:51:28;;;;;;;3.78;1.75;;;26.30;99.90;;;;;;20606749;28;20901;-67
2021/09/09 17:01:34;;;;;;;4.65;1.35;;;26.40;99.90;;;;;;20602908;28;20227;-67
2021/09/09 17:11:38;;;;;;;8.48;1.15;;;26.40;99.90;;;;;;20603064;28;20266;-67
2021/09/09 17:21:44;;;;;;;0.80;0.80;;;26.30;99.90;;;;;;20627500;28;20214;-67
2021/09/09 17:31:48;;;;;;;7.03;3.33;;;26.40;99.90;;;;;;20683439;28;20207;-68
2021/09/09 17:41:53;;;;;;;4.35;1.33;;;26.40;99.90;;;;;;20687981;28;20226;-69
2021/09/09 17:51:58;;;;;;;1.75;1.38;;;26.30;99.90;;;;;;20692697;28;20187;-68
2021/09/09 18:02:03;;;;;;;1.58;1.15;;;26.40;99.90;;;;;;20699619;28;20237;-67
2021/09/09 18:12:08;;;;;;;2.05;1.23;;;26.30;99.90;;;;;;20697891;28;20272;-67
2021/09/09 18:22:15;;;;;;;1.25;1.02;;;26.20;99.90;;;;;;20661713;28;20223;-68
2021/09/09 18:32:19;;;;;;;1.23;1.13;;;26.00;99.90;;;;;;20612718;28;20196;-68
2021/09/09 18:42:24;;;;;;;1.20;0.98;;;26.10;99.90;;;;;;20615687;28;20540;-68
2021/09/09 18:52:28;;;;;;;3.63;2.17;;;25.90;99.90;;;;;;20613593;28;20688;-69
2021/09/09 19:02:37;;;;;;;5.82;1.92;;;25.90;99.90;;;;;;20615199;28;20882;-68
2021/09/09 19:12:41;;;;;;;0.63;0.57;;;25.50;99.90;;;;;;20612822;28;20203;-66
2021/09/09 19:22:52;;;;;;;1.75;1.27;;;25.50;99.90;;;;;;20650119;28;20244;-68
2021/09/09 19:32:56;;;;;;;2.05;1.48;;;25.50;99.90;;;;;;20693330;28;20202;-67
2021/09/09 19:43:01;;;;;;;9.60;1.35;;;25.20;99.90;;;;;;20692416;28;20218;-68
2021/09/09 19:53:05;;;;;;;1.88;1.67;;;25.10;99.90;;;;;;20692312;28;20245;-66
2021/09/09 20:03:10;;;;;;;2.40;1.98;;;24.90;99.90;;;;;;20691811;28;20481;-69
2021/09/09 20:13:15;;;;;;;1.70;1.50;;;24.70;99.90;;;;;;20693070;28;20194;-68
2021/09/09 20:23:20;;;;;;;3.00;1.15;;;24.40;99.90;;;;;;20647840;28;20692;-68
2021/09/09 20:33:24;;;;;;;2.95;1.63;;;24.50;99.90;;;;;;20611388;28;20253;-68
2021/09/09 20:43:29;;;;;;;1.13;0.93;;;24.40;99.90;;;;;;20608016;28;20573;-67
2021/09/09 20:53:33;;;;;;;1.63;1.40;;;24.20;99.90;;;;;;20605824;28;20610;-66
2021/09/09 21:03:42;;;;;;;2.15;1.25;;;24.30;99.90;;;;;;20609444;28;20226;-69
2021/09/09 21:13:46;;;;;;;10.27;2.53;;;24.30;99.90;;;;;;20608246;28;20202;-68
2021/09/09 21:23:51;;;;;;;2.25;2.05;;;24.30;99.90;;;;;;20666722;28;20226;-66
2021/09/09 21:33:55;;;;;;;0.38;0.30;;;24.50;99.90;;;;;;20691991;28;20198;-68
2021/09/09 21:44:00;;;;;;;1.83;1.73;;;24.40;99.90;;;;;;20703979;28;20230;-67
2021/09/09 21:54:03;;;;;;;1.92;1.10;;;24.20;99.90;;;;;;20700253;28;20600;-67
2021/09/09 22:04:09;;;;;;;1.38;1.13;;;24.20;99.90;;;;;;20700171;28;20246;-67
2021/09/09 22:14:13;;;;;;;1.42;1.33;;;23.90;99.90;;;;;;20700386;28;20209;-68
2021/09/09 22:24:18;;;;;;;1.20;1.08;;;23.80;99.90;;;;;;20650327;28;20727;-67
2021/09/09 22:34:22;;;;;;;1.15;1.13;;;23.60;99.90;;;;;;20618028;28;20195;-66
2021/09/09 22:44:27;;;;;;;1.40;1.08;;;23.50;99.90;;;;;;20618112;28;20230;-66
2021/09/09 22:54:30;;;;;;;4.57;2.10;;;23.50;99.90;;;;;;20614411;28;20196;-65
2021/09/09 23:04:36;;;;;;;1.42;1.33;;;23.40;99.90;;;;;;20616273;28;20667;-66
2021/09/09 23:14:39;;;;;;;0.82;0.63;;;23.30;99.90;;;;;;20619063;28;20202;-66
2021/09/09 23:24:44;;;;;;;2.10;1.40;;;23.30;99.90;;;;;;20674709;28;20238;-67
2021/09/09 23:34:48;;;;;;;1.95;1.25;;;23.50;99.90;;;;;;20702965;28;20198;-67
2021/09/09 23:44:53;;;;;;;0.63;0.47;;;23.40;99.90;;;;;;20700622;28;20226;-67
2021/09/09 23:54:56;;;;;;;2.90;1.55;;;23.40;99.90;;;;;;20693334;28;20432;-66
